createdAt,value
2022-12-25T00:01:43.536Z,0.98
2022-12-25T00:04:13.102Z,1.03
2022-12-25T00:06:42.263Z,1.04
2022-12-25T00:09:11.586Z,1.10
2022-12-25T00:11:42.104Z,1.03
2022-12-25T00:14:11.607Z,1.02
2022-12-25T00:16:40.623Z,1.01
2022-12-25T00:19:10.007Z,1.00
2022-12-25T00:21:39.089Z,1.00
2022-12-25T00:24:08.765Z,1.03
2022-12-25T00:26:37.756Z,1.02
2022-12-25T00:29:08.430Z,1.02
2022-12-25T00:31:37.687Z,1.04
2022-12-25T00:34:07.018Z,1.03
2022-12-25T00:36:41.462Z,1.04
2022-12-25T00:39:11.715Z,1.05
2022-12-25T00:41:58.344Z,1.07
2022-12-25T00:44:29.223Z,1.08
2022-12-25T00:46:58.462Z,1.10
2022-12-25T00:49:27.826Z,1.10
2022-12-25T00:51:56.925Z,1.11
2022-12-25T00:54:26.618Z,1.13
2022-12-25T00:56:55.759Z,1.15
2022-12-25T00:59:25.060Z,1.16
2022-12-25T01:01:55.738Z,1.18
2022-12-25T01:04:25.023Z,1.17
2022-12-25T01:06:54.006Z,1.18
2022-12-25T01:09:40.431Z,1.19
2022-12-25T01:12:09.577Z,1.19
2022-12-25T01:14:38.865Z,1.19
2022-12-25T01:17:09.377Z,1.19
2022-12-25T01:19:38.869Z,1.22
2022-12-25T01:22:08.105Z,1.23
2022-12-25T01:24:37.424Z,1.23
2022-12-25T01:27:06.473Z,1.24
2022-12-25T01:29:35.785Z,1.26
2022-12-25T01:32:05.052Z,1.28
2022-12-25T01:34:36.052Z,1.25
2022-12-25T01:37:05.520Z,1.25
2022-12-25T01:39:35.567Z,1.25
2022-12-25T01:42:05.252Z,1.25
2022-12-25T01:45:24.238Z,1.27
2022-12-25T01:47:53.583Z,1.25
2022-12-25T01:50:24.882Z,1.29
2022-12-25T01:52:55.263Z,1.28
2022-12-25T01:55:25.442Z,1.27
2022-12-25T01:57:54.557Z,1.28
2022-12-25T02:00:24.025Z,1.24
2022-12-25T02:02:53.376Z,1.24
2022-12-25T02:05:28.192Z,1.26
2022-12-25T02:07:59.150Z,1.26
2022-12-25T02:10:28.580Z,1.26
2022-12-25T02:12:57.897Z,1.25
2022-12-25T02:15:35.171Z,1.26
2022-12-25T02:18:13.364Z,1.24
2022-12-25T02:21:09.711Z,1.23
2022-12-25T02:24:14.694Z,1.21
2022-12-25T02:27:04.332Z,1.20
2022-12-25T02:29:43.528Z,1.19
2022-12-25T02:32:21.790Z,1.16
2022-12-25T02:34:55.983Z,1.13
2022-12-25T02:37:31.941Z,1.07
2022-12-25T02:40:07.256Z,1.11
2022-12-25T02:43:00.120Z,1.06
2022-12-25T02:45:52.297Z,1.00
2022-12-25T02:48:43.254Z,0.96
2022-12-25T02:51:33.200Z,0.94
2022-12-25T02:54:24.090Z,0.94
2022-12-25T02:57:13.069Z,0.91
2022-12-25T03:00:04.459Z,1.04
2022-12-25T03:02:53.194Z,1.06
2022-12-25T03:05:52.394Z,1.05
2022-12-25T03:08:25.852Z,1.06
2022-12-25T03:11:20.320Z,1.07
2022-12-25T03:13:53.952Z,1.00
2022-12-25T03:16:41.716Z,1.03
2022-12-25T03:19:26.106Z,0.94
2022-12-25T03:22:14.937Z,1.00
2022-12-25T03:25:01.877Z,1.05
2022-12-25T03:27:34.466Z,1.04
2022-12-25T03:34:23.781Z,0.95
2022-12-25T03:37:18.396Z,0.94
2022-12-25T03:40:12.345Z,0.99
2022-12-25T03:43:06.501Z,1.00
2022-12-25T03:46:00.922Z,1.06
2022-12-25T03:48:52.908Z,1.03
2022-12-25T03:51:45.327Z,1.03
2022-12-25T03:54:39.399Z,1.00
2022-12-25T03:57:26.939Z,1.03
2022-12-25T04:00:13.437Z,1.05
2022-12-25T04:03:08.849Z,1.07
2022-12-25T04:05:55.203Z,1.06
2022-12-25T04:08:47.522Z,1.10
2022-12-25T04:11:35.666Z,1.12
2022-12-25T04:14:22.595Z,1.14
2022-12-25T04:17:09.235Z,1.15
2022-12-25T04:19:56.380Z,1.14
2022-12-25T04:22:42.772Z,1.17
2022-12-25T04:25:29.636Z,1.20
2022-12-25T04:28:22.463Z,1.18
2022-12-25T04:31:09.707Z,1.19
2022-12-25T04:33:56.699Z,1.22
2022-12-25T04:36:26.090Z,1.25
2022-12-25T04:38:55.071Z,1.26
2022-12-25T04:41:24.461Z,1.26
2022-12-25T04:43:54.842Z,1.27
2022-12-25T04:46:24.285Z,1.26
2022-12-25T04:48:53.694Z,1.27
2022-12-25T04:51:25.304Z,1.29
2022-12-25T04:53:55.648Z,1.31
2022-12-25T04:56:25.207Z,1.32
2022-12-25T04:58:55.713Z,1.34
2022-12-25T05:01:25.396Z,1.35
2022-12-25T05:03:54.683Z,1.37
2022-12-25T05:06:24.011Z,1.40
2022-12-25T05:08:53.191Z,1.39
2022-12-25T05:11:22.487Z,1.41
2022-12-25T05:13:51.882Z,1.43
2022-12-25T05:16:22.912Z,1.45
2022-12-25T05:18:52.500Z,1.46
2022-12-25T05:21:22.322Z,1.49
2022-12-25T05:23:52.612Z,1.48
2022-12-25T05:26:24.026Z,1.50
2022-12-25T05:28:53.771Z,1.50
2022-12-25T05:31:24.570Z,1.50
2022-12-25T05:33:54.215Z,1.52
2022-12-25T05:36:23.431Z,1.52
2022-12-25T05:38:52.682Z,1.53
2022-12-25T05:41:22.360Z,1.53
2022-12-25T05:43:51.490Z,1.55
2022-12-25T05:46:20.812Z,1.54
2022-12-25T05:48:51.392Z,1.54
2022-12-25T05:51:20.656Z,1.56
2022-12-25T05:53:49.921Z,1.56
2022-12-25T05:56:19.223Z,1.57
2022-12-25T05:58:48.363Z,1.58
2022-12-25T06:01:21.218Z,1.58
2022-12-25T06:03:52.076Z,1.58
2022-12-25T06:06:21.802Z,1.58
2022-12-25T06:08:50.953Z,1.57
2022-12-25T06:11:20.219Z,1.59
2022-12-25T06:13:52.124Z,1.59
2022-12-25T06:16:21.963Z,1.57
2022-12-25T06:18:54.404Z,1.60
2022-12-25T06:21:23.868Z,1.58
2022-12-25T06:23:53.345Z,1.57
2022-12-25T06:26:22.634Z,1.59
2022-12-25T06:28:51.623Z,1.59
2022-12-25T06:31:23.785Z,1.58
2022-12-25T06:33:54.719Z,1.60
2022-12-25T06:36:26.173Z,1.58
2022-12-25T06:38:55.393Z,1.63
2022-12-25T06:41:28.108Z,1.61
2022-12-25T06:43:58.948Z,1.59
2022-12-25T06:46:30.795Z,1.60
2022-12-25T06:49:01.720Z,1.61
2022-12-25T06:51:33.330Z,1.59
2022-12-25T06:54:04.340Z,1.57
2022-12-25T06:56:35.064Z,1.58
2022-12-25T06:59:05.564Z,1.58
2022-12-25T07:01:37.994Z,1.58
2022-12-25T07:04:14.783Z,1.59
2022-12-25T07:06:44.329Z,1.65
2022-12-25T07:09:13.310Z,1.61
2022-12-25T07:11:42.554Z,1.59
2022-12-25T07:14:23.402Z,1.59
2022-12-25T07:16:53.942Z,1.61
2022-12-25T07:19:24.682Z,1.61
2022-12-25T07:21:54.069Z,1.61
2022-12-25T07:24:24.278Z,1.61
2022-12-25T07:26:53.826Z,1.57
2022-12-25T07:29:22.777Z,1.60
2022-12-25T07:31:52.214Z,1.62
2022-12-25T07:34:23.971Z,1.66
2022-12-25T07:36:53.489Z,1.64
2022-12-25T07:39:23.649Z,1.65
2022-12-25T07:41:54.508Z,1.64
2022-12-25T07:44:23.535Z,1.68
2022-12-25T07:46:53.339Z,1.67
2022-12-25T07:49:23.943Z,1.68
2022-12-25T07:51:53.346Z,1.69
2022-12-25T07:54:23.274Z,1.68
2022-12-25T07:56:53.320Z,1.67
2022-12-25T07:59:22.896Z,1.70
2022-12-25T08:01:52.617Z,1.71
2022-12-25T08:04:23.298Z,1.72
2022-12-25T08:06:52.713Z,1.73
2022-12-25T08:09:21.735Z,1.76
2022-12-25T08:11:51.126Z,1.78
2022-12-25T08:14:20.228Z,1.80
2022-12-25T08:16:49.616Z,1.82
2022-12-25T08:19:19.074Z,1.84
2022-12-25T08:21:49.845Z,1.85
2022-12-25T08:24:19.056Z,1.88
2022-12-25T08:26:48.488Z,1.90
2022-12-25T08:29:17.576Z,1.92
2022-12-25T08:31:47.014Z,1.94
2022-12-25T08:34:17.057Z,1.96
2022-12-25T08:36:46.324Z,1.98
2022-12-25T08:39:16.886Z,2.01
2022-12-25T08:41:46.469Z,2.02
2022-12-25T08:44:15.441Z,2.04
2022-12-25T08:46:45.032Z,2.07
2022-12-25T08:49:14.179Z,2.08
2022-12-25T08:51:45.444Z,2.10
2022-12-25T08:54:15.937Z,2.13
2022-12-25T08:56:45.228Z,2.15
2022-12-25T08:59:14.245Z,2.16
2022-12-25T09:01:43.584Z,2.17
2022-12-25T09:04:12.828Z,2.19
2022-12-25T09:06:42.148Z,2.20
2022-12-25T09:09:11.401Z,2.22
2022-12-25T09:11:42.081Z,2.25
2022-12-25T09:14:13.745Z,2.26
2022-12-25T09:16:43.150Z,2.28
2022-12-25T09:19:12.305Z,2.28
2022-12-25T09:21:41.584Z,2.30
2022-12-25T09:24:10.903Z,2.29
2022-12-25T09:26:41.903Z,2.32
2022-12-25T09:29:11.014Z,2.33
2022-12-25T09:31:40.264Z,2.35
2022-12-25T09:34:16.921Z,2.34
2022-12-25T09:36:48.187Z,2.34
2022-12-25T09:39:17.283Z,2.36
2022-12-25T09:41:57.121Z,2.38
2022-12-25T09:44:29.947Z,2.39
2022-12-25T09:47:02.537Z,2.41
2022-12-25T09:49:38.413Z,2.41
2022-12-25T09:52:12.535Z,2.43
2022-12-25T09:54:49.666Z,2.47
2022-12-25T09:57:20.452Z,2.47
2022-12-25T09:59:49.857Z,2.48
2022-12-25T10:02:43.442Z,2.51
2022-12-25T10:05:45.525Z,2.53
2022-12-25T10:08:23.454Z,2.54
2022-12-25T10:11:01.184Z,2.57
2022-12-25T10:13:53.854Z,2.58
2022-12-25T10:16:31.393Z,2.59
2022-12-25T10:19:23.356Z,2.63
2022-12-25T10:21:58.651Z,2.64
2022-12-25T10:24:35.244Z,2.67
2022-12-25T10:27:13.478Z,2.70
2022-12-25T10:29:46.616Z,2.71
2022-12-25T10:32:16.706Z,2.73
2022-12-25T10:34:45.985Z,2.74
2022-12-25T10:37:15.225Z,2.76
2022-12-25T10:39:46.961Z,2.77
2022-12-25T10:42:42.001Z,2.79
2022-12-25T10:45:13.441Z,2.81
2022-12-25T10:47:45.043Z,2.82
2022-12-25T10:50:21.529Z,2.86
2022-12-25T10:52:57.534Z,2.88
2022-12-25T10:55:29.534Z,2.90
2022-12-25T10:57:59.344Z,2.92
2022-12-25T11:00:32.521Z,2.93
2022-12-25T11:03:03.417Z,2.92
2022-12-25T11:05:35.187Z,2.95
2022-12-25T11:08:05.232Z,2.98
2022-12-25T11:10:37.875Z,2.98
2022-12-25T11:13:09.241Z,3.00
2022-12-25T11:15:42.911Z,3.02
2022-12-25T11:18:22.334Z,3.04
2022-12-25T11:20:53.655Z,3.06
2022-12-25T11:23:24.439Z,3.09
2022-12-25T11:25:58.323Z,3.10
2022-12-25T11:28:28.153Z,3.10
2022-12-25T11:31:04.284Z,3.11
2022-12-25T11:33:38.615Z,3.13
2022-12-25T11:36:17.610Z,3.13
2022-12-25T11:38:47.103Z,3.15
2022-12-25T11:41:20.958Z,3.16
2022-12-25T11:43:58.078Z,3.18
2022-12-25T11:46:34.205Z,3.20
2022-12-25T11:49:08.679Z,3.22
2022-12-25T11:51:41.995Z,3.20
2022-12-25T11:54:19.872Z,3.17
2022-12-25T11:56:51.172Z,3.20
2022-12-25T11:59:26.068Z,3.16
2022-12-25T12:02:04.578Z,3.17
2022-12-25T12:04:42.608Z,3.16
2022-12-25T12:07:22.762Z,3.14
2022-12-25T12:09:59.340Z,3.15
2022-12-25T12:12:36.909Z,3.17
2022-12-25T12:15:15.194Z,3.16
2022-12-25T12:17:47.190Z,3.16
2022-12-25T12:20:29.671Z,3.13
2022-12-25T12:23:01.745Z,3.15
2022-12-25T12:25:31.410Z,3.14
2022-12-25T12:28:05.554Z,3.12
2022-12-25T12:30:36.854Z,3.12
2022-12-25T12:33:09.333Z,3.11
2022-12-25T12:35:41.168Z,3.10
2022-12-25T12:38:18.372Z,3.08
2022-12-25T12:40:57.166Z,3.09
2022-12-25T12:43:32.979Z,3.08
2022-12-25T12:46:15.919Z,3.07
2022-12-25T12:48:50.047Z,3.07
2022-12-25T12:51:31.561Z,3.05
2022-12-25T12:54:20.325Z,3.05
2022-12-25T12:57:00.271Z,3.05
2022-12-25T12:59:38.965Z,3.04
2022-12-25T13:02:35.189Z,3.04
2022-12-25T13:05:09.245Z,3.01
2022-12-25T13:07:52.487Z,3.01
2022-12-25T13:10:28.845Z,3.01
2022-12-25T13:13:02.898Z,3.01
2022-12-25T13:15:34.949Z,3.02
2022-12-25T13:18:07.939Z,3.04
2022-12-25T13:20:46.563Z,3.06
2022-12-25T13:23:25.016Z,3.06
2022-12-25T13:25:55.616Z,3.04
2022-12-25T13:28:29.737Z,3.01
2022-12-25T13:31:15.087Z,3.05
2022-12-25T13:33:50.357Z,2.99
2022-12-25T13:36:21.186Z,3.01
2022-12-25T13:38:53.930Z,2.99
2022-12-25T13:41:43.408Z,2.97
2022-12-25T13:44:20.599Z,2.94
2022-12-25T13:46:50.350Z,2.93
2022-12-25T13:49:21.035Z,2.90
2022-12-25T13:51:52.601Z,2.92
2022-12-25T13:54:22.411Z,2.91
2022-12-25T13:56:55.588Z,2.92
2022-12-25T13:59:27.033Z,2.92
2022-12-25T14:01:57.800Z,2.91
2022-12-25T14:04:27.076Z,2.92
2022-12-25T14:06:57.719Z,2.91
2022-12-25T14:09:27.561Z,2.92
2022-12-25T14:11:57.029Z,2.91
2022-12-25T14:14:27.052Z,2.90
2022-12-25T14:16:58.837Z,2.92
2022-12-25T14:19:30.714Z,2.91
2022-12-25T14:22:04.992Z,2.91
2022-12-25T14:24:36.266Z,2.89
2022-12-25T14:27:07.745Z,2.91
2022-12-25T14:29:41.577Z,2.87
2022-12-25T14:32:16.531Z,2.84
2022-12-25T14:34:47.385Z,2.89
2022-12-25T14:37:21.747Z,2.86
2022-12-25T14:39:57.730Z,2.83
2022-12-25T14:42:29.972Z,2.83
2022-12-25T14:45:26.824Z,2.79
2022-12-25T14:47:57.976Z,2.80
2022-12-25T14:50:31.916Z,2.80
2022-12-25T14:53:02.836Z,2.81
2022-12-25T14:55:32.632Z,2.80
2022-12-25T14:58:05.604Z,2.82
2022-12-25T15:00:37.596Z,2.80
2022-12-25T15:03:16.843Z,2.77
2022-12-25T15:05:46.538Z,2.76
2022-12-25T15:08:27.423Z,2.72
2022-12-25T15:11:00.381Z,2.72
2022-12-25T15:13:31.900Z,2.69
2022-12-25T15:16:08.102Z,2.69
2022-12-25T15:18:41.739Z,2.69
2022-12-25T15:21:17.797Z,2.70
2022-12-25T15:23:48.901Z,2.69
2022-12-25T15:26:18.096Z,2.68
2022-12-25T15:28:47.424Z,2.73
2022-12-25T15:31:22.891Z,2.69
2022-12-25T15:33:53.244Z,2.70
2022-12-25T15:36:22.334Z,2.67
2022-12-25T15:38:53.685Z,2.68
2022-12-25T15:41:43.220Z,2.68
2022-12-25T15:44:13.016Z,2.61
2022-12-25T15:46:42.112Z,2.67
2022-12-25T15:49:12.027Z,2.68
2022-12-25T15:51:41.925Z,2.68
2022-12-25T15:54:12.892Z,2.70
2022-12-25T15:56:44.660Z,2.70
2022-12-25T15:59:15.931Z,2.69
2022-12-25T16:01:48.486Z,2.68
2022-12-25T16:04:18.481Z,2.70
2022-12-25T16:06:48.075Z,2.69
2022-12-25T16:09:23.070Z,2.71
2022-12-25T16:11:52.419Z,2.72
2022-12-25T16:14:21.908Z,2.70
2022-12-25T16:16:51.162Z,2.72
2022-12-25T16:19:20.430Z,2.72
2022-12-25T16:21:50.117Z,2.76
2022-12-25T16:24:20.596Z,2.73
2022-12-25T16:26:49.585Z,2.69
2022-12-25T16:29:19.211Z,2.69
2022-12-25T16:31:48.401Z,2.65
2022-12-25T16:34:17.869Z,2.65
2022-12-25T16:36:46.855Z,2.63
2022-12-25T16:39:16.282Z,2.65
2022-12-25T16:41:46.766Z,2.65
2022-12-25T16:44:16.189Z,2.64
2022-12-25T16:46:45.254Z,2.64
2022-12-25T16:49:14.829Z,2.64
2022-12-25T16:51:43.805Z,2.66
2022-12-25T16:54:13.340Z,2.66
2022-12-25T16:56:42.370Z,2.67
2022-12-25T16:59:13.373Z,2.69
2022-12-25T17:01:44.005Z,2.69
2022-12-25T17:04:14.210Z,2.70
2022-12-25T17:06:43.147Z,2.68
2022-12-25T17:09:12.468Z,2.64
2022-12-25T17:11:41.532Z,2.64
2022-12-25T17:14:13.734Z,2.65
2022-12-25T17:16:42.866Z,2.66
2022-12-25T17:19:19.688Z,2.66
2022-12-25T17:21:49.178Z,2.68
2022-12-25T17:24:19.236Z,2.68
2022-12-25T17:26:48.359Z,2.66
2022-12-25T17:29:22.356Z,2.66
2022-12-25T17:31:52.843Z,2.64
2022-12-25T17:34:22.316Z,2.66
2022-12-25T17:36:51.312Z,2.64
2022-12-25T17:39:20.782Z,2.64
2022-12-25T17:41:51.685Z,2.65
2022-12-25T17:44:22.619Z,2.66
2022-12-25T17:46:52.316Z,2.68
2022-12-25T17:49:22.345Z,2.66
2022-12-25T17:51:51.686Z,2.64
2022-12-25T17:54:21.127Z,2.65
2022-12-25T17:56:52.813Z,2.64
2022-12-25T17:59:28.463Z,2.65
2022-12-25T18:01:57.980Z,2.68
2022-12-25T18:04:27.395Z,2.68
2022-12-25T18:06:56.618Z,2.66
2022-12-25T18:09:25.907Z,2.68
2022-12-25T18:11:55.588Z,2.69
2022-12-25T18:14:26.225Z,2.70
2022-12-25T18:16:55.216Z,2.72
2022-12-25T18:19:24.629Z,2.72
2022-12-25T18:21:55.966Z,2.73
2022-12-25T18:24:25.672Z,2.71
2022-12-25T18:26:54.971Z,2.72
2022-12-25T18:29:25.603Z,2.74
2022-12-25T18:31:55.638Z,2.73
2022-12-25T18:34:27.884Z,2.75
2022-12-25T18:37:03.010Z,2.75
2022-12-25T18:39:34.549Z,2.72
2022-12-25T18:42:21.459Z,2.71
2022-12-25T18:44:52.233Z,2.74
2022-12-25T18:47:21.591Z,2.76
2022-12-25T18:49:50.883Z,2.78
2022-12-25T18:52:49.266Z,2.78
2022-12-25T18:55:10.850Z,2.77
2022-12-25T18:57:43.663Z,2.76
2022-12-25T19:00:14.875Z,2.77
2022-12-25T19:02:45.526Z,2.77
2022-12-25T19:05:15.328Z,2.78
2022-12-25T19:07:45.478Z,2.78
2022-12-25T19:10:15.503Z,2.80
2022-12-25T19:12:48.903Z,2.80
2022-12-25T19:15:21.824Z,2.83
2022-12-25T19:17:54.114Z,2.85
2022-12-25T19:20:23.637Z,2.86
2022-12-25T19:22:52.648Z,2.85
2022-12-25T19:25:22.367Z,2.85
2022-12-25T19:27:53.557Z,2.89
2022-12-25T19:30:24.911Z,2.86
2022-12-25T19:32:54.938Z,2.86
2022-12-25T19:35:24.379Z,2.87
2022-12-25T19:37:56.589Z,2.89
2022-12-25T19:40:26.516Z,2.88
2022-12-25T19:42:56.415Z,2.89
2022-12-25T19:45:28.757Z,2.90
2022-12-25T19:47:58.466Z,2.94
2022-12-25T19:50:28.784Z,2.96
2022-12-25T19:52:58.024Z,2.97
2022-12-25T19:55:27.329Z,2.97
2022-12-25T19:57:59.178Z,2.98
2022-12-25T20:00:30.132Z,3.00
2022-12-25T20:03:05.340Z,2.99
2022-12-25T20:05:35.486Z,3.02
2022-12-25T20:08:05.552Z,3.00
2022-12-25T20:10:37.147Z,3.00
2022-12-25T20:13:08.455Z,2.99
2022-12-25T20:15:39.243Z,3.01
2022-12-25T20:18:09.728Z,3.00
2022-12-25T20:20:39.145Z,2.98
2022-12-25T20:23:09.044Z,3.03
2022-12-25T20:25:41.959Z,3.06
2022-12-25T20:28:12.124Z,3.06
2022-12-25T20:30:45.501Z,3.07
2022-12-25T20:33:15.069Z,3.08
2022-12-25T20:35:47.834Z,3.08
2022-12-25T20:38:19.174Z,3.10
2022-12-25T20:41:25.107Z,3.10
2022-12-25T20:43:45.015Z,3.12
2022-12-25T20:46:16.263Z,3.13
2022-12-25T20:48:45.881Z,3.16
2022-12-25T20:51:17.450Z,3.16
2022-12-25T20:53:47.849Z,3.16
2022-12-25T20:56:21.701Z,3.17
2022-12-25T20:58:55.489Z,3.20
2022-12-25T21:01:27.062Z,3.20
2022-12-25T21:03:57.303Z,3.22
2022-12-25T21:06:27.644Z,3.20
2022-12-25T21:08:56.944Z,3.21
2022-12-25T21:11:26.427Z,3.21
2022-12-25T21:13:56.714Z,3.21
2022-12-25T21:16:28.063Z,3.21
2022-12-25T21:18:59.896Z,3.23
2022-12-25T21:21:29.719Z,3.21
2022-12-25T21:23:58.744Z,3.21
2022-12-25T21:26:32.022Z,3.21
2022-12-25T21:29:03.641Z,3.22
2022-12-25T21:31:56.545Z,3.22
2022-12-25T21:34:26.185Z,3.20
2022-12-25T21:36:55.433Z,3.21
2022-12-25T21:39:26.316Z,3.21
2022-12-25T21:41:55.547Z,3.22
2022-12-25T21:44:24.915Z,3.23
2022-12-25T21:47:01.580Z,3.25
2022-12-25T21:49:53.385Z,3.25
2022-12-25T21:52:23.016Z,3.26
2022-12-25T21:54:53.758Z,3.23
2022-12-25T21:57:23.140Z,3.25
2022-12-25T21:59:52.248Z,3.24
2022-12-25T22:02:23.228Z,3.26
2022-12-25T22:04:52.770Z,3.28
2022-12-25T22:07:21.065Z,3.28
2022-12-25T22:09:51.933Z,3.30
2022-12-25T22:12:39.919Z,3.31
2022-12-25T22:15:11.049Z,3.29
2022-12-25T22:18:01.701Z,3.31
2022-12-25T22:20:34.740Z,3.31
2022-12-25T22:23:05.204Z,3.32
2022-12-25T22:25:34.109Z,3.30
2022-12-25T22:28:03.367Z,3.28
2022-12-25T22:30:32.583Z,3.31
2022-12-25T22:33:05.157Z,3.34
2022-12-25T22:35:34.294Z,3.35
2022-12-25T22:38:03.610Z,3.39
2022-12-25T22:40:32.870Z,3.36
2022-12-25T22:43:02.415Z,3.37
2022-12-25T22:45:31.690Z,3.40
2022-12-25T22:48:00.947Z,3.41
2022-12-25T22:50:31.739Z,3.42
2022-12-25T22:53:01.050Z,3.44
2022-12-25T22:55:30.043Z,3.45
2022-12-25T22:57:59.443Z,3.46
2022-12-25T23:00:28.460Z,3.47
2022-12-25T23:02:58.261Z,3.48
2022-12-25T23:05:27.408Z,3.43
2022-12-25T23:07:58.042Z,3.46
2022-12-25T23:10:27.226Z,3.45
2022-12-25T23:13:13.787Z,3.46
2022-12-25T23:15:45.194Z,3.48
2022-12-25T23:18:32.153Z,3.47
2022-12-25T23:21:19.761Z,3.48
2022-12-25T23:24:08.047Z,3.49
2022-12-25T23:26:37.122Z,3.50
2022-12-25T23:29:23.738Z,3.49
2022-12-25T23:31:53.817Z,3.48
2022-12-25T23:34:23.514Z,3.50
2022-12-25T23:36:52.902Z,3.52
2022-12-25T23:39:23.720Z,3.54
2022-12-25T23:41:52.787Z,3.53
2022-12-25T23:44:22.882Z,3.52
2022-12-25T23:46:53.407Z,3.55
2022-12-25T23:49:24.559Z,3.56
2022-12-25T23:51:54.497Z,3.57
2022-12-25T23:54:26.149Z,3.56
2022-12-25T23:56:57.305Z,3.56
2022-12-25T23:59:26.949Z,3.57
